sensor_id;sensor_type;location;lat;lon;timestamp;pressure;altitude;pressure_sealevel;temperature
40199;BMP280;25906;43.536;26.068;2023-05-15T00:01:55;98911.28;;;14.69
40199;BMP280;25906;43.536;26.068;2023-05-15T00:04:41;98905.53;;;14.71
40199;BMP280;25906;43.536;26.068;2023-05-15T00:07:26;98910.09;;;14.79
40199;BMP280;25906;43.536;26.068;2023-05-15T00:10:11;98910.66;;;14.74
40199;BMP280;25906;43.536;26.068;2023-05-15T00:12:57;98910.72;;;14.65
40199;BMP280;25906;43.536;26.068;2023-05-15T00:15:42;98893.34;;;14.61
40199;BMP280;25906;43.536;26.068;2023-05-15T00:18:27;98887.00;;;14.67
40199;BMP280;25906;43.536;26.068;2023-05-15T00:21:12;98878.75;;;14.65
40199;BMP280;25906;43.536;26.068;2023-05-15T00:23:58;98873.09;;;14.72
40199;BMP280;25906;43.536;26.068;2023-05-15T00:26:43;98858.41;;;14.77
40199;BMP280;25906;43.536;26.068;2023-05-15T00:29:28;98861.41;;;14.70
40199;BMP280;25906;43.536;26.068;2023-05-15T00:32:14;98858.84;;;14.66
40199;BMP280;25906;43.536;26.068;2023-05-15T00:34:59;98854.28;;;14.67
40199;BMP280;25906;43.536;26.068;2023-05-15T00:37:44;98849.25;;;14.69
40199;BMP280;25906;43.536;26.068;2023-05-15T00:40:29;98841.59;;;14.71
40199;BMP280;25906;43.536;26.068;2023-05-15T00:43:15;98849.13;;;14.81
40199;BMP280;25906;43.536;26.068;2023-05-15T00:46:01;98845.72;;;14.72
40199;BMP280;25906;43.536;26.068;2023-05-15T00:48:47;98835.06;;;14.63
40199;BMP280;25906;43.536;26.068;2023-05-15T00:51:33;98835.69;;;14.58
40199;BMP280;25906;43.536;26.068;2023-05-15T00:54:19;98832.84;;;14.70
40199;BMP280;25906;43.536;26.068;2023-05-15T00:57:04;98839.22;;;14.64
40199;BMP280;25906;43.536;26.068;2023-05-15T00:59:51;98833.59;;;14.52
40199;BMP280;25906;43.536;26.068;2023-05-15T01:02:36;98839.66;;;14.53
40199;BMP280;25906;43.536;26.068;2023-05-15T01:05:22;98841.00;;;14.48
40199;BMP280;25906;43.536;26.068;2023-05-15T01:08:26;98832.56;;;14.41
40199;BMP280;25906;43.536;26.068;2023-05-15T01:11:16;98837.41;;;14.42
40199;BMP280;25906;43.536;26.068;2023-05-15T01:14:02;98827.97;;;14.41
40199;BMP280;25906;43.536;26.068;2023-05-15T01:16:48;98810.38;;;14.26
40199;BMP280;25906;43.536;26.068;2023-05-15T01:19:34;98806.81;;;14.20
40199;BMP280;25906;43.536;26.068;2023-05-15T01:22:32;98793.22;;;14.18
40199;BMP280;25906;43.536;26.068;2023-05-15T01:25:24;98795.88;;;14.18
40199;BMP280;25906;43.536;26.068;2023-05-15T01:28:17;98788.47;;;14.13
40199;BMP280;25906;43.536;26.068;2023-05-15T01:31:08;98761.84;;;14.13
40199;BMP280;25906;43.536;26.068;2023-05-15T01:33:55;98758.44;;;14.03
40199;BMP280;25906;43.536;26.068;2023-05-15T01:36:47;98767.19;;;14.03
40199;BMP280;25906;43.536;26.068;2023-05-15T01:39:35;98758.28;;;13.88
40199;BMP280;25906;43.536;26.068;2023-05-15T01:42:24;98775.00;;;13.89
40199;BMP280;25906;43.536;26.068;2023-05-15T01:45:11;98760.66;;;13.95
40199;BMP280;25906;43.536;26.068;2023-05-15T01:47:57;98768.66;;;14.04
40199;BMP280;25906;43.536;26.068;2023-05-15T01:50:44;98763.91;;;13.90
40199;BMP280;25906;43.536;26.068;2023-05-15T01:53:31;98774.41;;;13.94
40199;BMP280;25906;43.536;26.068;2023-05-15T01:56:16;98777.06;;;13.94
40199;BMP280;25906;43.536;26.068;2023-05-15T01:59:03;98784.78;;;14.01
40199;BMP280;25906;43.536;26.068;2023-05-15T02:01:49;98788.47;;;14.03
40199;BMP280;25906;43.536;26.068;2023-05-15T02:04:35;98789.34;;;14.00
40199;BMP280;25906;43.536;26.068;2023-05-15T02:07:21;98802.38;;;13.98
40199;BMP280;25906;43.536;26.068;2023-05-15T02:10:07;98791.25;;;13.91
40199;BMP280;25906;43.536;26.068;2023-05-15T02:12:53;98781.97;;;13.86
40199;BMP280;25906;43.536;26.068;2023-05-15T02:15:39;98788.00;;;13.78
40199;BMP280;25906;43.536;26.068;2023-05-15T02:18:24;98794.78;;;13.79
40199;BMP280;25906;43.536;26.068;2023-05-15T02:21:09;98803.78;;;13.81
40199;BMP280;25906;43.536;26.068;2023-05-15T02:23:54;98797.44;;;13.79
40199;BMP280;25906;43.536;26.068;2023-05-15T02:38:15;98822.91;;;13.98
40199;BMP280;25906;43.536;26.068;2023-05-15T02:41:01;98821.88;;;14.04
40199;BMP280;25906;43.536;26.068;2023-05-15T02:43:47;98813.75;;;13.99
40199;BMP280;25906;43.536;26.068;2023-05-15T02:46:35;98815.34;;;14.05
40199;BMP280;25906;43.536;26.068;2023-05-15T02:49:20;98816.69;;;14.01
40199;BMP280;25906;43.536;26.068;2023-05-15T02:52:06;98828.25;;;14.07
40199;BMP280;25906;43.536;26.068;2023-05-15T02:54:51;98817.31;;;14.05
40199;BMP280;25906;43.536;26.068;2023-05-15T02:57:37;98791.59;;;14.02
40199;BMP280;25906;43.536;26.068;2023-05-15T03:00:22;98788.00;;;13.96
40199;BMP280;25906;43.536;26.068;2023-05-15T03:03:07;98794.22;;;13.84
40199;BMP280;25906;43.536;26.068;2023-05-15T03:05:53;98788.25;;;13.71
40199;BMP280;25906;43.536;26.068;2023-05-15T03:08:38;98770.09;;;13.87
40199;BMP280;25906;43.536;26.068;2023-05-15T03:11:23;98762.75;;;13.91
40199;BMP280;25906;43.536;26.068;2023-05-15T03:14:08;98756.50;;;13.94
40199;BMP280;25906;43.536;26.068;2023-05-15T03:16:54;98756.69;;;13.91
40199;BMP280;25906;43.536;26.068;2023-05-15T03:19:39;98761.13;;;13.94
40199;BMP280;25906;43.536;26.068;2023-05-15T03:22:25;98760.22;;;13.97
40199;BMP280;25906;43.536;26.068;2023-05-15T03:25:10;98756.69;;;14.00
40199;BMP280;25906;43.536;26.068;2023-05-15T03:27:55;98754.47;;;14.08
40199;BMP280;25906;43.536;26.068;2023-05-15T03:30:44;98762.03;;;14.09
40199;BMP280;25906;43.536;26.068;2023-05-15T03:33:29;98757.69;;;14.12
40199;BMP280;25906;43.536;26.068;2023-05-15T03:36:15;98769.25;;;14.09
40199;BMP280;25906;43.536;26.068;2023-05-15T03:39:00;98776.94;;;14.16
40199;BMP280;25906;43.536;26.068;2023-05-15T03:41:46;98781.53;;;14.24
40199;BMP280;25906;43.536;26.068;2023-05-15T03:44:31;98775.78;;;14.26
40199;BMP280;25906;43.536;26.068;2023-05-15T03:47:17;98778.88;;;14.33
40199;BMP280;25906;43.536;26.068;2023-05-15T03:50:02;98777.69;;;14.34
40199;BMP280;25906;43.536;26.068;2023-05-15T03:52:48;98781.97;;;14.32
40199;BMP280;25906;43.536;26.068;2023-05-15T03:55:33;98794.69;;;14.28
40199;BMP280;25906;43.536;26.068;2023-05-15T03:58:19;98791.13;;;14.31
40199;BMP280;25906;43.536;26.068;2023-05-15T04:01:05;98792.78;;;14.28
40199;BMP280;25906;43.536;26.068;2023-05-15T04:03:50;98801.03;;;14.30
40199;BMP280;25906;43.536;26.068;2023-05-15T04:06:35;98795.00;;;14.39
40199;BMP280;25906;43.536;26.068;2023-05-15T04:09:21;98797.66;;;14.39
40199;BMP280;25906;43.536;26.068;2023-05-15T04:12:06;98796.31;;;14.52
40199;BMP280;25906;43.536;26.068;2023-05-15T04:14:52;98792.00;;;14.73
40199;BMP280;25906;43.536;26.068;2023-05-15T04:17:37;98807.34;;;14.78
40199;BMP280;25906;43.536;26.068;2023-05-15T04:20:23;98806.59;;;14.96
40199;BMP280;25906;43.536;26.068;2023-05-15T04:23:08;98814.16;;;14.97
40199;BMP280;25906;43.536;26.068;2023-05-15T04:25:53;98812.16;;;15.07
40199;BMP280;25906;43.536;26.068;2023-05-15T04:28:39;98797.59;;;15.17
40199;BMP280;25906;43.536;26.068;2023-05-15T04:31:24;98804.16;;;15.16
40199;BMP280;25906;43.536;26.068;2023-05-15T04:34:11;98802.06;;;15.20
40199;BMP280;25906;43.536;26.068;2023-05-15T04:36:56;98797.00;;;15.22
40199;BMP280;25906;43.536;26.068;2023-05-15T04:39:41;98795.81;;;15.23
40199;BMP280;25906;43.536;26.068;2023-05-15T04:42:27;98800.88;;;15.21
40199;BMP280;25906;43.536;26.068;2023-05-15T04:45:13;98801.13;;;15.32
40199;BMP280;25906;43.536;26.068;2023-05-15T04:47:58;98800.81;;;15.30
40199;BMP280;25906;43.536;26.068;2023-05-15T04:50:44;98806.28;;;15.36
40199;BMP280;25906;43.536;26.068;2023-05-15T04:53:29;98807.88;;;15.42
40199;BMP280;25906;43.536;26.068;2023-05-15T04:56:14;98809.19;;;15.47
40199;BMP280;25906;43.536;26.068;2023-05-15T04:59:00;98803.31;;;15.43
40199;BMP280;25906;43.536;26.068;2023-05-15T05:01:45;98807.50;;;15.58
40199;BMP280;25906;43.536;26.068;2023-05-15T05:04:30;98816.94;;;15.69
40199;BMP280;25906;43.536;26.068;2023-05-15T05:07:16;98813.19;;;15.99
40199;BMP280;25906;43.536;26.068;2023-05-15T05:10:01;98813.81;;;16.32
40199;BMP280;25906;43.536;26.068;2023-05-15T05:12:48;98810.69;;;16.63
40199;BMP280;25906;43.536;26.068;2023-05-15T05:15:33;98810.66;;;16.34
40199;BMP280;25906;43.536;26.068;2023-05-15T05:18:18;98802.94;;;16.50
40199;BMP280;25906;43.536;26.068;2023-05-15T05:21:03;98804.53;;;16.57
40199;BMP280;25906;43.536;26.068;2023-05-15T05:23:49;98814.09;;;16.78
40199;BMP280;25906;43.536;26.068;2023-05-15T05:26:34;98812.22;;;16.99
40199;BMP280;25906;43.536;26.068;2023-05-15T05:29:19;98799.56;;;17.14
40199;BMP280;25906;43.536;26.068;2023-05-15T05:32:05;98785.03;;;17.00
40199;BMP280;25906;43.536;26.068;2023-05-15T05:34:51;98783.00;;;17.10
40199;BMP280;25906;43.536;26.068;2023-05-15T05:37:36;98783.06;;;16.81
40199;BMP280;25906;43.536;26.068;2023-05-15T05:40:22;98770.88;;;16.80
40199;BMP280;25906;43.536;26.068;2023-05-15T05:43:07;98770.50;;;16.87
40199;BMP280;25906;43.536;26.068;2023-05-15T05:45:53;98772.56;;;16.77
40199;BMP280;25906;43.536;26.068;2023-05-15T05:48:38;98768.56;;;16.58
40199;BMP280;25906;43.536;26.068;2023-05-15T05:51:23;98771.53;;;16.45
40199;BMP280;25906;43.536;26.068;2023-05-15T05:54:08;98782.06;;;16.49
40199;BMP280;25906;43.536;26.068;2023-05-15T05:56:54;98790.53;;;16.77
40199;BMP280;25906;43.536;26.068;2023-05-15T05:59:39;98795.47;;;16.84
40199;BMP280;25906;43.536;26.068;2023-05-15T06:02:24;98799.03;;;17.10
40199;BMP280;25906;43.536;26.068;2023-05-15T06:05:10;98802.91;;;17.09
40199;BMP280;25906;43.536;26.068;2023-05-15T06:07:55;98805.41;;;17.47
40199;BMP280;25906;43.536;26.068;2023-05-15T06:10:41;98792.19;;;17.84
40199;BMP280;25906;43.536;26.068;2023-05-15T06:13:27;98799.00;;;18.05
40199;BMP280;25906;43.536;26.068;2023-05-15T06:16:12;98803.00;;;18.15
40199;BMP280;25906;43.536;26.068;2023-05-15T06:18:58;98797.28;;;18.28
40199;BMP280;25906;43.536;26.068;2023-05-15T06:21:43;98803.63;;;18.30
40199;BMP280;25906;43.536;26.068;2023-05-15T06:24:28;98811.53;;;18.40
40199;BMP280;25906;43.536;26.068;2023-05-15T06:27:14;98811.13;;;18.52
40199;BMP280;25906;43.536;26.068;2023-05-15T06:29:59;98817.25;;;18.27
40199;BMP280;25906;43.536;26.068;2023-05-15T06:32:44;98817.66;;;18.20
40199;BMP280;25906;43.536;26.068;2023-05-15T06:35:30;98811.81;;;18.21
40199;BMP280;25906;43.536;26.068;2023-05-15T06:38:15;98810.50;;;18.11
40199;BMP280;25906;43.536;26.068;2023-05-15T06:41:00;98816.56;;;18.32
40199;BMP280;25906;43.536;26.068;2023-05-15T06:43:46;98813.47;;;18.39
40199;BMP280;25906;43.536;26.068;2023-05-15T06:46:31;98817.88;;;18.73
40199;BMP280;25906;43.536;26.068;2023-05-15T06:49:16;98807.94;;;18.79
40199;BMP280;25906;43.536;26.068;2023-05-15T06:52:01;98803.09;;;18.83
40199;BMP280;25906;43.536;26.068;2023-05-15T06:54:47;98795.78;;;18.84
40199;BMP280;25906;43.536;26.068;2023-05-15T06:57:32;98791.50;;;18.98
40199;BMP280;25906;43.536;26.068;2023-05-15T07:00:17;98788.91;;;19.14
40199;BMP280;25906;43.536;26.068;2023-05-15T07:03:03;98791.34;;;19.18
40199;BMP280;25906;43.536;26.068;2023-05-15T07:05:48;98778.88;;;19.09
40199;BMP280;25906;43.536;26.068;2023-05-15T07:08:33;98769.72;;;18.90
40199;BMP280;25906;43.536;26.068;2023-05-15T07:11:19;98782.38;;;18.89
40199;BMP280;25906;43.536;26.068;2023-05-15T07:14:05;98788.31;;;19.41
40199;BMP280;25906;43.536;26.068;2023-05-15T07:16:50;98779.38;;;19.83
40199;BMP280;25906;43.536;26.068;2023-05-15T07:19:35;98778.38;;;19.59
40199;BMP280;25906;43.536;26.068;2023-05-15T07:22:21;98775.91;;;19.55
40199;BMP280;25906;43.536;26.068;2023-05-15T07:25:06;98767.66;;;19.75
40199;BMP280;25906;43.536;26.068;2023-05-15T07:27:51;98766.00;;;20.39
40199;BMP280;25906;43.536;26.068;2023-05-15T07:30:37;98769.88;;;19.99
40199;BMP280;25906;43.536;26.068;2023-05-15T07:33:22;98769.69;;;20.30
40199;BMP280;25906;43.536;26.068;2023-05-15T07:36:07;98774.53;;;20.65
40199;BMP280;25906;43.536;26.068;2023-05-15T07:38:53;98765.50;;;20.68
40199;BMP280;25906;43.536;26.068;2023-05-15T07:41:38;98783.81;;;20.64
40199;BMP280;25906;43.536;26.068;2023-05-15T07:44:23;98775.22;;;20.99
40199;BMP280;25906;43.536;26.068;2023-05-15T07:47:09;98780.41;;;20.86
40199;BMP280;25906;43.536;26.068;2023-05-15T07:49:54;98788.25;;;21.47
40199;BMP280;25906;43.536;26.068;2023-05-15T07:52:39;98781.34;;;21.57
40199;BMP280;25906;43.536;26.068;2023-05-15T07:55:25;98792.72;;;21.74
40199;BMP280;25906;43.536;26.068;2023-05-15T07:58:10;98803.72;;;21.81
40199;BMP280;25906;43.536;26.068;2023-05-15T08:00:56;98803.19;;;21.88
40199;BMP280;25906;43.536;26.068;2023-05-15T08:03:41;98800.41;;;22.00
40199;BMP280;25906;43.536;26.068;2023-05-15T08:06:26;98785.41;;;22.10
40199;BMP280;25906;43.536;26.068;2023-05-15T08:09:11;98787.22;;;21.96
40199;BMP280;25906;43.536;26.068;2023-05-15T08:12:13;98775.56;;;22.42
40199;BMP280;25906;43.536;26.068;2023-05-15T08:14:59;98774.16;;;22.35
40199;BMP280;25906;43.536;26.068;2023-05-15T08:17:44;98755.16;;;22.71
40199;BMP280;25906;43.536;26.068;2023-05-15T08:20:29;98769.41;;;23.08
40199;BMP280;25906;43.536;26.068;2023-05-15T08:23:15;98770.16;;;22.90
40199;BMP280;25906;43.536;26.068;2023-05-15T08:26:00;98768.50;;;23.25
40199;BMP280;25906;43.536;26.068;2023-05-15T08:28:45;98768.13;;;23.52
40199;BMP280;25906;43.536;26.068;2023-05-15T08:31:31;98764.50;;;23.31
40199;BMP280;25906;43.536;26.068;2023-05-15T08:34:16;98763.22;;;23.32
40199;BMP280;25906;43.536;26.068;2023-05-15T08:37:02;98764.91;;;22.98
40199;BMP280;25906;43.536;26.068;2023-05-15T08:39:48;98762.34;;;23.05
40199;BMP280;25906;43.536;26.068;2023-05-15T08:45:19;98730.84;;;23.13
40199;BMP280;25906;43.536;26.068;2023-05-15T08:48:06;98725.16;;;22.98
40199;BMP280;25906;43.536;26.068;2023-05-15T08:50:52;98727.53;;;23.02
40199;BMP280;25906;43.536;26.068;2023-05-15T08:53:38;98723.97;;;23.31
40199;BMP280;25906;43.536;26.068;2023-05-15T08:56:23;98723.38;;;23.38
40199;BMP280;25906;43.536;26.068;2023-05-15T08:59:09;98717.88;;;23.62
40199;BMP280;25906;43.536;26.068;2023-05-15T09:01:54;98714.81;;;23.53
40199;BMP280;25906;43.536;26.068;2023-05-15T09:04:40;98716.22;;;23.72
40199;BMP280;25906;43.536;26.068;2023-05-15T09:07:25;98701.75;;;24.02
40199;BMP280;25906;43.536;26.068;2023-05-15T09:10:10;98706.94;;;24.00
40199;BMP280;25906;43.536;26.068;2023-05-15T09:12:57;98709.47;;;24.50
40199;BMP280;25906;43.536;26.068;2023-05-15T09:15:44;98717.06;;;24.25
40199;BMP280;25906;43.536;26.068;2023-05-15T09:18:30;98719.50;;;23.84
40199;BMP280;25906;43.536;26.068;2023-05-15T09:21:23;98720.91;;;23.40
40199;BMP280;25906;43.536;26.068;2023-05-15T09:27:03;98735.44;;;23.88
40199;BMP280;25906;43.536;26.068;2023-05-15T09:29:49;98739.13;;;24.16
40199;BMP280;25906;43.536;26.068;2023-05-15T09:32:38;98737.34;;;24.19
40199;BMP280;25906;43.536;26.068;2023-05-15T09:35:42;98732.34;;;24.62
40199;BMP280;25906;43.536;26.068;2023-05-15T09:38:27;98731.31;;;24.39
40199;BMP280;25906;43.536;26.068;2023-05-15T09:41:12;98730.69;;;24.72
40199;BMP280;25906;43.536;26.068;2023-05-15T09:43:58;98716.81;;;24.76
40199;BMP280;25906;43.536;26.068;2023-05-15T09:46:43;98726.75;;;24.94
40199;BMP280;25906;43.536;26.068;2023-05-15T09:49:28;98723.81;;;25.05
40199;BMP280;25906;43.536;26.068;2023-05-15T09:52:14;98734.59;;;25.18
40199;BMP280;25906;43.536;26.068;2023-05-15T09:54:59;98736.38;;;25.49
40199;BMP280;25906;43.536;26.068;2023-05-15T09:58:04;98733.19;;;25.58
40199;BMP280;25906;43.536;26.068;2023-05-15T10:00:50;98724.47;;;25.52
40199;BMP280;25906;43.536;26.068;2023-05-15T10:03:35;98719.50;;;25.64
40199;BMP280;25906;43.536;26.068;2023-05-15T10:06:21;98724.22;;;25.43
40199;BMP280;25906;43.536;26.068;2023-05-15T10:09:06;98722.75;;;25.42
40199;BMP280;25906;43.536;26.068;2023-05-15T10:11:51;98722.22;;;25.64
40199;BMP280;25906;43.536;26.068;2023-05-15T10:14:37;98724.97;;;25.51
40199;BMP280;25906;43.536;26.068;2023-05-15T10:17:23;98716.59;;;25.62
40199;BMP280;25906;43.536;26.068;2023-05-15T10:20:08;98710.00;;;25.50
40199;BMP280;25906;43.536;26.068;2023-05-15T10:22:54;98710.25;;;25.39
40199;BMP280;25906;43.536;26.068;2023-05-15T10:25:41;98704.56;;;25.50
40199;BMP280;25906;43.536;26.068;2023-05-15T10:28:27;98705.97;;;25.64
40199;BMP280;25906;43.536;26.068;2023-05-15T10:31:12;98707.09;;;25.27
40199;BMP280;25906;43.536;26.068;2023-05-15T10:33:57;98708.72;;;25.09
40199;BMP280;25906;43.536;26.068;2023-05-15T10:36:44;98703.03;;;25.21
40199;BMP280;25906;43.536;26.068;2023-05-15T10:39:29;98702.09;;;24.84
40199;BMP280;25906;43.536;26.068;2023-05-15T10:42:15;98695.22;;;24.96
40199;BMP280;25906;43.536;26.068;2023-05-15T10:45:01;98684.22;;;24.68
40199;BMP280;25906;43.536;26.068;2023-05-15T10:47:47;98680.22;;;24.95
40199;BMP280;25906;43.536;26.068;2023-05-15T10:50:32;98681.09;;;25.32
40199;BMP280;25906;43.536;26.068;2023-05-15T10:53:22;98674.19;;;25.44
40199;BMP280;25906;43.536;26.068;2023-05-15T10:56:14;98668.16;;;25.38
40199;BMP280;25906;43.536;26.068;2023-05-15T10:59:04;98675.97;;;25.07
40199;BMP280;25906;43.536;26.068;2023-05-15T11:01:51;98662.75;;;25.17
40199;BMP280;25906;43.536;26.068;2023-05-15T11:04:37;98672.72;;;25.71
40199;BMP280;25906;43.536;26.068;2023-05-15T11:07:22;98668.44;;;25.55
40199;BMP280;25906;43.536;26.068;2023-05-15T11:13:08;98669.84;;;25.69
40199;BMP280;25906;43.536;26.068;2023-05-15T11:15:53;98665.28;;;25.64
40199;BMP280;25906;43.536;26.068;2023-05-15T11:18:39;98664.34;;;25.54
40199;BMP280;25906;43.536;26.068;2023-05-15T11:21:24;98668.69;;;25.57
40199;BMP280;25906;43.536;26.068;2023-05-15T11:24:16;98679.56;;;25.64
40199;BMP280;25906;43.536;26.068;2023-05-15T11:27:02;98687.06;;;25.79
40199;BMP280;25906;43.536;26.068;2023-05-15T11:30:07;98695.78;;;25.57
40199;BMP280;25906;43.536;26.068;2023-05-15T11:32:57;98692.53;;;25.58
40199;BMP280;25906;43.536;26.068;2023-05-15T11:35:43;98693.97;;;25.39
40199;BMP280;25906;43.536;26.068;2023-05-15T11:38:35;98693.97;;;25.39
40199;BMP280;25906;43.536;26.068;2023-05-15T11:41:21;98700.69;;;25.04
40199;BMP280;25906;43.536;26.068;2023-05-15T11:44:08;98702.16;;;25.05
40199;BMP280;25906;43.536;26.068;2023-05-15T11:46:54;98694.84;;;25.13
40199;BMP280;25906;43.536;26.068;2023-05-15T11:49:39;98694.06;;;24.92
40199;BMP280;25906;43.536;26.068;2023-05-15T11:52:25;98694.72;;;24.85
40199;BMP280;25906;43.536;26.068;2023-05-15T11:55:11;98696.25;;;24.93
40199;BMP280;25906;43.536;26.068;2023-05-15T11:57:57;98695.00;;;24.94
40199;BMP280;25906;43.536;26.068;2023-05-15T12:00:43;98685.91;;;24.71
40199;BMP280;25906;43.536;26.068;2023-05-15T12:03:32;98679.69;;;25.17
40199;BMP280;25906;43.536;26.068;2023-05-15T12:06:18;98673.13;;;25.26
40199;BMP280;25906;43.536;26.068;2023-05-15T12:09:03;98674.13;;;25.36
40199;BMP280;25906;43.536;26.068;2023-05-15T12:11:52;98670.66;;;25.56
40199;BMP280;25906;43.536;26.068;2023-05-15T12:14:38;98664.84;;;25.52
40199;BMP280;25906;43.536;26.068;2023-05-15T12:17:24;98663.25;;;25.57
40199;BMP280;25906;43.536;26.068;2023-05-15T12:20:10;98663.03;;;25.55
40199;BMP280;25906;43.536;26.068;2023-05-15T12:22:56;98660.59;;;25.02
40199;BMP280;25906;43.536;26.068;2023-05-15T12:25:43;98657.31;;;24.96
40199;BMP280;25906;43.536;26.068;2023-05-15T12:28:32;98656.78;;;25.19
40199;BMP280;25906;43.536;26.068;2023-05-15T12:31:18;98654.31;;;25.07
40199;BMP280;25906;43.536;26.068;2023-05-15T12:34:03;98658.31;;;25.06
40199;BMP280;25906;43.536;26.068;2023-05-15T12:36:48;98653.88;;;24.96
40199;BMP280;25906;43.536;26.068;2023-05-15T12:39:34;98658.75;;;24.97
40199;BMP280;25906;43.536;26.068;2023-05-15T12:42:19;98660.59;;;25.02
40199;BMP280;25906;43.536;26.068;2023-05-15T12:45:10;98661.78;;;24.94
40199;BMP280;25906;43.536;26.068;2023-05-15T12:47:56;98663.38;;;24.89
40199;BMP280;25906;43.536;26.068;2023-05-15T12:50:43;98664.66;;;24.75
40199;BMP280;25906;43.536;26.068;2023-05-15T12:53:30;98658.56;;;24.35
40199;BMP280;25906;43.536;26.068;2023-05-15T12:56:15;98657.03;;;24.27
40199;BMP280;25906;43.536;26.068;2023-05-15T12:59:01;98649.03;;;24.08
40199;BMP280;25906;43.536;26.068;2023-05-15T13:01:46;98650.16;;;24.00
40199;BMP280;25906;43.536;26.068;2023-05-15T13:04:32;98649.09;;;23.76
40199;BMP280;25906;43.536;26.068;2023-05-15T13:07:17;98643.75;;;23.45
40199;BMP280;25906;43.536;26.068;2023-05-15T13:10:05;98640.91;;;23.37
40199;BMP280;25906;43.536;26.068;2023-05-15T13:12:52;98641.00;;;23.32
40199;BMP280;25906;43.536;26.068;2023-05-15T13:15:39;98639.47;;;23.17
40199;BMP280;25906;43.536;26.068;2023-05-15T13:18:24;98643.16;;;23.33
40199;BMP280;25906;43.536;26.068;2023-05-15T13:21:10;98628.66;;;23.17
40199;BMP280;25906;43.536;26.068;2023-05-15T13:23:55;98628.63;;;23.04
40199;BMP280;25906;43.536;26.068;2023-05-15T13:26:40;98615.84;;;22.86
40199;BMP280;25906;43.536;26.068;2023-05-15T13:29:26;98626.44;;;22.66
40199;BMP280;25906;43.536;26.068;2023-05-15T13:32:11;98629.56;;;22.70
40199;BMP280;25906;43.536;26.068;2023-05-15T13:34:56;98627.03;;;22.59
40199;BMP280;25906;43.536;26.068;2023-05-15T13:37:42;98623.16;;;22.54
40199;BMP280;25906;43.536;26.068;2023-05-15T13:40:28;98624.19;;;22.51
40199;BMP280;25906;43.536;26.068;2023-05-15T13:43:13;98630.50;;;22.53
40199;BMP280;25906;43.536;26.068;2023-05-15T13:45:58;98622.06;;;22.44
40199;BMP280;25906;43.536;26.068;2023-05-15T13:48:44;98637.94;;;22.47
40199;BMP280;25906;43.536;26.068;2023-05-15T13:51:29;98645.34;;;22.66
40199;BMP280;25906;43.536;26.068;2023-05-15T13:54:14;98643.50;;;22.55
40199;BMP280;25906;43.536;26.068;2023-05-15T13:56:59;98643.72;;;22.57
40199;BMP280;25906;43.536;26.068;2023-05-15T13:59:45;98648.69;;;22.72
40199;BMP280;25906;43.536;26.068;2023-05-15T14:02:31;98646.28;;;22.87
40199;BMP280;25906;43.536;26.068;2023-05-15T14:05:16;98649.34;;;22.96
40199;BMP280;25906;43.536;26.068;2023-05-15T14:08:01;98647.59;;;22.99
40199;BMP280;25906;43.536;26.068;2023-05-15T14:10:47;98651.31;;;22.96
40199;BMP280;25906;43.536;26.068;2023-05-15T14:13:32;98650.94;;;23.05
40199;BMP280;25906;43.536;26.068;2023-05-15T14:16:18;98661.03;;;23.04
40199;BMP280;25906;43.536;26.068;2023-05-15T14:19:03;98670.84;;;23.21
40199;BMP280;25906;43.536;26.068;2023-05-15T14:21:48;98668.47;;;22.98
40199;BMP280;25906;43.536;26.068;2023-05-15T14:24:33;98658.88;;;22.97
40199;BMP280;25906;43.536;26.068;2023-05-15T14:27:19;98642.13;;;22.86
40199;BMP280;25906;43.536;26.068;2023-05-15T14:30:04;98658.25;;;22.91
40199;BMP280;25906;43.536;26.068;2023-05-15T14:32:50;98659.75;;;22.87
40199;BMP280;25906;43.536;26.068;2023-05-15T14:35:35;98658.53;;;22.88
40199;BMP280;25906;43.536;26.068;2023-05-15T14:38:20;98669.53;;;22.90
40199;BMP280;25906;43.536;26.068;2023-05-15T14:41:06;98671.72;;;22.73
40199;BMP280;25906;43.536;26.068;2023-05-15T14:43:51;98669.75;;;22.73
40199;BMP280;25906;43.536;26.068;2023-05-15T14:46:36;98677.13;;;22.73
40199;BMP280;25906;43.536;26.068;2023-05-15T14:49:22;98676.66;;;22.69
40199;BMP280;25906;43.536;26.068;2023-05-15T14:52:08;98680.69;;;22.62
40199;BMP280;25906;43.536;26.068;2023-05-15T14:54:54;98673.59;;;22.40
40199;BMP280;25906;43.536;26.068;2023-05-15T14:57:39;98668.63;;;22.44
40199;BMP280;25906;43.536;26.068;2023-05-15T15:00:25;98667.22;;;22.38
40199;BMP280;25906;43.536;26.068;2023-05-15T15:03:10;98667.13;;;22.25
40199;BMP280;25906;43.536;26.068;2023-05-15T15:05:56;98663.63;;;22.30
40199;BMP280;25906;43.536;26.068;2023-05-15T15:08:41;98644.97;;;22.08
40199;BMP280;25906;43.536;26.068;2023-05-15T15:11:26;98642.41;;;21.97
40199;BMP280;25906;43.536;26.068;2023-05-15T15:14:12;98637.16;;;21.80
40199;BMP280;25906;43.536;26.068;2023-05-15T15:16:57;98630.25;;;21.84
40199;BMP280;25906;43.536;26.068;2023-05-15T15:19:42;98625.13;;;21.86
40199;BMP280;25906;43.536;26.068;2023-05-15T15:22:27;98616.47;;;21.64
40199;BMP280;25906;43.536;26.068;2023-05-15T15:25:13;98608.34;;;21.69
40199;BMP280;25906;43.536;26.068;2023-05-15T15:27:58;98612.78;;;21.67
40199;BMP280;25906;43.536;26.068;2023-05-15T15:30:43;98613.31;;;21.65
40199;BMP280;25906;43.536;26.068;2023-05-15T15:33:28;98597.06;;;21.47
40199;BMP280;25906;43.536;26.068;2023-05-15T15:36:14;98584.63;;;21.38
40199;BMP280;25906;43.536;26.068;2023-05-15T15:38:59;98575.13;;;21.32
40199;BMP280;25906;43.536;26.068;2023-05-15T15:41:45;98578.13;;;21.22
40199;BMP280;25906;43.536;26.068;2023-05-15T15:44:31;98567.38;;;21.22
40199;BMP280;25906;43.536;26.068;2023-05-15T15:47:17;98553.94;;;21.17
40199;BMP280;25906;43.536;26.068;2023-05-15T15:50:02;98544.19;;;21.14
40199;BMP280;25906;43.536;26.068;2023-05-15T15:52:47;98554.47;;;21.10
40199;BMP280;25906;43.536;26.068;2023-05-15T15:55:33;98573.53;;;21.12
40199;BMP280;25906;43.536;26.068;2023-05-15T15:58:18;98583.81;;;21.13
40199;BMP280;25906;43.536;26.068;2023-05-15T16:01:03;98588.28;;;21.05
40199;BMP280;25906;43.536;26.068;2023-05-15T16:03:49;98589.78;;;21.01